Martha, KY

7:38 PM EST on December 08, 2016 (GMT -0500)
Keaton | | Change Station

Elev 850 ft 37.96 °N, 82.98 °W | Updated 37 seconds ago

Clear
Clear
25.7 °F
Feels Like 26 °F
N
0.0
Wind Variable Wind from WSW

Today
High -- | Low -- °F
--% Chance of Precip.
Yesterday
High -- | Low -- °F
Precip. -- in
Pressure 30.31 in
Visibility 10.0 miles
Clouds Clear
Windchill 26 °F
Dew Point 21 °F
Humidity 83%
Rainfall 0.00 in
Snow Depth Not available.
7:35 AM 5:11 PM
Waxing Gibbous, 68% visible
METAR KSJS 082340Z AUTO 30006KT 10SM CLR M01/M09 A3031 RMK AO2 T10071089
Pressure 30.31 in
Visibility 10.0 miles
Clouds Clear
Windchill 26 °F
Dew Point 21 °F
Humidity 83%
Rainfall 0.00 in
Snow Depth Not available.
7:35 AM 5:11 PM
Waxing Gibbous, 68% visible
METAR KSJS 082340Z AUTO 30006KT 10SM CLR M01/M09 A3031 RMK AO2 T10071089

10-Day Weather Forecast

Almanac

Astronomy

Dec. 08, 2016 Rise Set
Actual Time
Civil Twilight
Nautical Twilight
Astronomical Twilight
Moon
Length of Visible Light
Length of Day
Tomorrow will be .
, % of the Moon is Illuminated

Today's Extremes

State Highs State Lows

Community

WunderPhotos

Upload Photos

1,956,277 photos uploaded!

WunderBlog® & News

Nearby

Air Quality

  Air Quality AQ Index Pollutant
Not available.

Snow Depth

Station Depth Elevation

Earthquake Activity

City Distance Mag. Time & Date
Minimum magnitude displayed is 2.5.

Coastal Water Temperatures

Place Temperature

Stations

Nearby Weather Stations

Station Location Temp. Windchill Dew Point Humidity Wind Precip. Elev Updated Type
                   

Watches & Warnings

There are currently no watches in effect.